createdAt,value
2023-04-21T00:02:04.825Z,53.32
2023-04-21T00:04:33.311Z,53.34
2023-04-21T00:07:03.717Z,53.35
2023-04-21T00:09:31.830Z,53.37
2023-04-21T00:11:59.911Z,53.45
2023-04-21T00:14:28.142Z,53.37
2023-04-21T00:16:56.361Z,53.51
2023-04-21T00:19:24.405Z,53.54
2023-04-21T00:21:58.645Z,53.49
2023-04-21T00:24:26.967Z,53.40
2023-04-21T00:26:55.098Z,53.45
2023-04-21T00:29:24.081Z,53.30
2023-04-21T00:31:52.337Z,53.53
2023-04-21T00:34:20.726Z,53.64
2023-04-21T00:36:49.054Z,53.72
2023-04-21T00:39:17.394Z,53.68
2023-04-21T00:41:45.905Z,53.84
2023-04-21T00:44:14.020Z,53.93
2023-04-21T00:46:43.426Z,53.89
2023-04-21T00:49:13.407Z,54.07
2023-04-21T00:51:41.665Z,54.04
2023-04-21T00:54:13.838Z,53.98
2023-04-21T00:56:42.679Z,54.02
2023-04-21T00:59:10.954Z,54.15
2023-04-21T01:01:40.054Z,54.11
2023-04-21T01:04:10.584Z,54.06
2023-04-21T01:06:39.150Z,54.10
2023-04-21T01:09:07.208Z,54.08
2023-04-21T01:11:38.682Z,54.15
2023-04-21T01:14:08.922Z,54.16
2023-04-21T01:16:40.013Z,54.16
2023-04-21T01:19:08.426Z,54.24
2023-04-21T01:21:40.821Z,54.39
2023-04-21T01:24:08.749Z,54.61
2023-04-21T01:26:37.046Z,54.58
2023-04-21T01:29:05.344Z,54.53
2023-04-21T01:31:33.650Z,54.55
2023-04-21T01:34:05.382Z,54.52
2023-04-21T01:36:33.682Z,54.46
2023-04-21T01:39:01.930Z,54.54
2023-04-21T01:41:31.299Z,54.61
2023-04-21T01:43:59.413Z,54.67
2023-04-21T01:46:28.178Z,54.61
2023-04-21T01:48:57.853Z,54.68
2023-04-21T01:51:27.255Z,54.68
2023-04-21T01:53:55.462Z,54.72
2023-04-21T01:56:25.633Z,54.80
2023-04-21T01:58:53.797Z,54.88
2023-04-21T02:01:22.681Z,54.93
2023-04-21T02:03:51.297Z,54.98
2023-04-21T02:06:19.605Z,54.99
2023-04-21T02:08:47.738Z,55.00
2023-04-21T02:11:16.152Z,55.05
2023-04-21T02:13:44.201Z,55.13
2023-04-21T02:16:14.616Z,55.18
2023-04-21T02:18:44.767Z,55.30
2023-04-21T02:21:13.222Z,55.26
2023-04-21T02:23:41.541Z,55.30
2023-04-21T02:26:09.686Z,55.33
2023-04-21T02:28:37.985Z,55.47
2023-04-21T02:31:06.244Z,55.43
2023-04-21T02:33:36.438Z,55.47
2023-04-21T02:36:05.195Z,55.62
2023-04-21T02:38:33.335Z,55.60
2023-04-21T02:41:01.562Z,55.73
2023-04-21T02:43:29.702Z,55.59
2023-04-21T02:45:57.968Z,55.65
2023-04-21T02:48:26.906Z,55.75
2023-04-21T02:50:55.351Z,55.69
2023-04-21T02:53:23.508Z,55.83
2023-04-21T02:55:52.614Z,55.90
2023-04-21T02:58:20.710Z,55.84
2023-04-21T03:00:48.877Z,55.98
2023-04-21T03:03:17.263Z,55.86
2023-04-21T03:05:45.631Z,55.95
2023-04-21T03:08:13.937Z,56.07
2023-04-21T03:10:42.042Z,56.00
2023-04-21T03:13:10.093Z,55.93
2023-04-21T03:15:38.906Z,56.06
2023-04-21T03:18:07.071Z,55.99
2023-04-21T03:20:35.548Z,56.09
2023-04-21T03:23:04.358Z,56.25
2023-04-21T03:25:32.667Z,56.25
2023-04-21T03:28:01.033Z,56.31
2023-04-21T03:30:29.273Z,56.40
2023-04-21T03:32:58.819Z,56.46
2023-04-21T03:35:27.663Z,56.38
2023-04-21T03:37:56.020Z,56.39
2023-04-21T03:40:24.166Z,56.49
2023-04-21T03:42:52.288Z,56.47
2023-04-21T03:45:22.802Z,56.53
2023-04-21T03:47:57.355Z,56.44
2023-04-21T03:50:25.671Z,56.57
2023-04-21T03:52:54.055Z,56.70
2023-04-21T03:55:22.102Z,56.64
2023-04-21T03:57:50.385Z,56.73
2023-04-21T04:00:18.666Z,56.68
2023-04-21T04:02:47.256Z,56.81
2023-04-21T04:05:15.914Z,56.81
2023-04-21T04:07:44.033Z,56.85
2023-04-21T04:10:12.382Z,56.81
2023-04-21T04:12:40.645Z,56.95
2023-04-21T04:15:09.446Z,57.06
2023-04-21T04:17:37.592Z,57.02
2023-04-21T04:20:08.541Z,57.09
2023-04-21T04:22:37.264Z,57.04
2023-04-21T04:25:05.861Z,57.12
2023-04-21T04:27:34.385Z,57.15
2023-04-21T04:30:03.344Z,57.07
2023-04-21T04:32:33.741Z,57.16
2023-04-21T04:35:02.645Z,57.18
2023-04-21T04:37:31.855Z,57.12
2023-04-21T04:40:00.639Z,57.24
2023-04-21T04:42:29.067Z,57.31
2023-04-21T04:44:57.439Z,57.31
2023-04-21T04:47:25.859Z,57.38
2023-04-21T04:49:54.023Z,57.41
2023-04-21T04:52:22.336Z,57.36
2023-04-21T04:54:50.390Z,57.42
2023-04-21T04:57:18.524Z,57.44
2023-04-21T04:59:46.644Z,57.44
2023-04-21T05:02:15.123Z,57.46
2023-04-21T05:04:43.486Z,57.45
2023-04-21T05:07:11.625Z,57.40
2023-04-21T05:09:39.809Z,57.52
2023-04-21T05:12:08.313Z,57.71
2023-04-21T05:14:36.327Z,57.54
2023-04-21T05:17:04.522Z,57.53
2023-04-21T05:19:36.443Z,57.56
2023-04-21T05:22:06.654Z,57.60
2023-04-21T05:24:35.126Z,57.64
2023-04-21T05:27:03.343Z,57.61
2023-04-21T05:29:31.499Z,57.65
2023-04-21T05:31:59.772Z,57.51
2023-04-21T05:34:27.858Z,57.55
2023-04-21T05:36:56.253Z,57.39
2023-04-21T05:39:24.461Z,57.45
2023-04-21T05:41:52.507Z,57.45
2023-04-21T05:44:20.721Z,57.44
2023-04-21T05:46:48.966Z,57.36
2023-04-21T05:49:17.016Z,57.30
2023-04-21T05:51:45.101Z,57.29
2023-04-21T05:54:13.332Z,57.46
2023-04-21T05:56:41.451Z,57.27
2023-04-21T05:59:09.571Z,57.31
2023-04-21T06:01:37.843Z,57.40
2023-04-21T06:04:06.372Z,57.26
2023-04-21T06:06:35.111Z,57.32
2023-04-21T06:09:03.245Z,57.37
2023-04-21T06:11:31.528Z,57.26
2023-04-21T06:14:00.035Z,57.24
2023-04-21T06:16:28.246Z,57.20
2023-04-21T06:18:59.038Z,57.19
2023-04-21T06:21:27.205Z,57.28
2023-04-21T06:23:55.372Z,57.32
2023-04-21T06:26:23.509Z,57.16
2023-04-21T06:28:51.871Z,56.99
2023-04-21T06:31:20.068Z,57.05
2023-04-21T06:33:48.272Z,57.13
2023-04-21T06:36:18.005Z,57.12
2023-04-21T06:38:46.413Z,57.04
2023-04-21T06:41:14.521Z,56.99
2023-04-21T06:43:42.611Z,57.02
2023-04-21T06:46:10.901Z,57.06
2023-04-21T06:48:38.926Z,57.01
2023-04-21T06:51:07.000Z,56.99
2023-04-21T06:53:35.278Z,56.84
2023-04-21T06:56:03.770Z,56.92
2023-04-21T06:58:31.856Z,56.92
2023-04-21T07:01:00.015Z,56.88
2023-04-21T07:03:28.342Z,56.85
2023-04-21T07:05:56.679Z,56.85
2023-04-21T07:08:25.348Z,56.84
2023-04-21T07:10:53.424Z,56.92
2023-04-21T07:13:21.474Z,56.93
2023-04-21T07:15:49.679Z,56.85
2023-04-21T07:18:17.862Z,56.70
2023-04-21T07:20:46.295Z,56.66
2023-04-21T07:23:14.581Z,56.58
2023-04-21T07:25:42.828Z,56.52
2023-04-21T07:28:16.304Z,56.65
2023-04-21T07:30:44.466Z,56.60
2023-04-21T07:33:12.938Z,56.56
2023-04-21T07:35:41.408Z,56.48
2023-04-21T07:38:09.894Z,56.44
2023-04-21T07:40:38.445Z,56.53
2023-04-21T07:43:06.541Z,56.55
2023-04-21T07:45:34.774Z,56.37
2023-04-21T07:48:03.093Z,56.28
2023-04-21T07:50:31.253Z,56.22
2023-04-21T07:52:59.616Z,56.27
2023-04-21T07:55:28.556Z,56.34
2023-04-21T07:57:56.753Z,56.28
2023-04-21T08:00:24.953Z,56.24
2023-04-21T08:02:53.622Z,56.33
2023-04-21T08:05:21.960Z,56.17
2023-04-21T08:07:50.088Z,56.06
2023-04-21T08:10:18.232Z,56.10
2023-04-21T08:12:46.563Z,56.09
2023-04-21T08:15:14.736Z,55.95
2023-04-21T08:17:43.032Z,56.01
2023-04-21T08:20:11.863Z,55.99
2023-04-21T08:22:40.177Z,55.99
2023-04-21T08:25:08.931Z,55.73
2023-04-21T08:27:40.203Z,55.72
2023-04-21T08:30:08.925Z,55.74
2023-04-21T08:32:37.165Z,55.72
2023-04-21T08:35:05.788Z,55.67
2023-04-21T08:37:37.195Z,55.52
2023-04-21T08:40:06.860Z,55.50
2023-04-21T08:42:37.058Z,55.44
2023-04-21T08:45:06.453Z,55.51
2023-04-21T08:47:37.647Z,55.51
2023-04-21T08:50:12.922Z,55.45
2023-04-21T08:52:41.099Z,55.35
2023-04-21T08:55:11.464Z,55.42
2023-04-21T08:57:39.515Z,55.38
2023-04-21T09:00:08.546Z,55.19
2023-04-21T09:03:00.230Z,55.33
2023-04-21T09:05:32.007Z,55.25
2023-04-21T09:08:12.133Z,55.21
2023-04-21T09:10:44.465Z,55.13
2023-04-21T09:13:13.073Z,55.02
2023-04-21T09:15:45.805Z,55.09
2023-04-21T09:18:25.107Z,55.08
2023-04-21T09:21:06.440Z,54.99
2023-04-21T09:23:52.108Z,54.85
2023-04-21T09:26:23.242Z,54.99
2023-04-21T09:28:53.174Z,54.96
2023-04-21T09:31:28.958Z,55.00
2023-04-21T09:34:00.849Z,54.90
2023-04-21T09:36:31.151Z,54.72
2023-04-21T09:41:35.327Z,54.72
2023-04-21T09:44:04.721Z,54.62
2023-04-21T09:46:35.142Z,54.38
2023-04-21T09:49:05.109Z,54.44
2023-04-21T09:54:28.955Z,54.27
2023-04-21T09:57:02.337Z,54.17
2023-04-21T09:59:37.343Z,54.18
2023-04-21T10:02:07.737Z,54.12
2023-04-21T10:04:38.160Z,54.15
2023-04-21T10:07:07.409Z,54.05
2023-04-21T10:09:45.414Z,53.85
2023-04-21T10:12:15.340Z,53.55
2023-04-21T10:14:43.828Z,53.61
2023-04-21T10:17:11.925Z,53.46
2023-04-21T10:19:52.530Z,53.28
2023-04-21T10:22:31.881Z,53.40
2023-04-21T10:25:02.583Z,53.14
2023-04-21T10:27:33.625Z,52.88
2023-04-21T10:30:02.943Z,52.81
2023-04-21T10:32:45.548Z,52.96
2023-04-21T10:35:16.123Z,52.97
2023-04-21T10:37:48.680Z,52.77
2023-04-21T10:40:44.765Z,52.61
2023-04-21T10:43:45.918Z,52.41
2023-04-21T10:46:40.631Z,52.35
2023-04-21T10:49:21.435Z,52.24
2023-04-21T10:52:05.716Z,52.21
2023-04-21T10:54:46.465Z,51.95
2023-04-21T10:57:18.953Z,51.96
2023-04-21T10:59:49.660Z,51.78
2023-04-21T11:02:19.280Z,51.81
2023-04-21T11:04:52.548Z,51.74
2023-04-21T11:07:24.493Z,51.68
2023-04-21T11:09:58.824Z,51.59
2023-04-21T11:12:32.464Z,51.44
2023-04-21T11:15:05.395Z,51.41
2023-04-21T11:17:34.380Z,51.18
2023-04-21T11:20:06.993Z,51.04
2023-04-21T11:22:37.570Z,50.94
2023-04-21T11:25:06.373Z,50.84
2023-04-21T11:27:34.571Z,50.72
2023-04-21T11:30:04.131Z,50.68
2023-04-21T11:32:32.276Z,50.52
2023-04-21T11:35:00.713Z,50.32
2023-04-21T11:37:28.998Z,50.38
2023-04-21T11:39:58.896Z,50.36
2023-04-21T11:42:27.879Z,50.37
2023-04-21T11:44:57.346Z,50.23
2023-04-21T11:47:29.138Z,50.22
2023-04-21T11:49:59.636Z,50.10
2023-04-21T11:52:36.214Z,50.04
2023-04-21T11:55:06.622Z,49.91
2023-04-21T11:57:35.196Z,49.91
2023-04-21T12:00:08.851Z,49.86
2023-04-21T12:02:37.601Z,49.95
2023-04-21T12:05:10.985Z,49.86
2023-04-21T12:07:43.295Z,49.93
2023-04-21T12:10:13.849Z,49.93
2023-04-21T12:12:43.181Z,49.70
2023-04-21T12:15:13.280Z,49.81
2023-04-21T12:17:45.382Z,49.59
2023-04-21T12:20:16.122Z,49.55
2023-04-21T12:22:44.843Z,49.30
2023-04-21T12:25:13.316Z,49.37
2023-04-21T12:27:54.262Z,49.41
2023-04-21T12:30:22.693Z,49.36
2023-04-21T12:32:52.440Z,49.45
2023-04-21T12:35:20.778Z,49.46
2023-04-21T12:37:48.984Z,49.52
2023-04-21T12:40:17.252Z,49.50
2023-04-21T12:42:45.344Z,49.45
2023-04-21T12:45:13.799Z,49.56
2023-04-21T12:47:43.628Z,49.43
2023-04-21T12:50:14.447Z,49.28
2023-04-21T12:52:42.743Z,49.20
2023-04-21T12:55:10.865Z,49.09
2023-04-21T12:57:39.244Z,48.91
2023-04-21T13:00:08.924Z,48.97
2023-04-21T13:02:38.300Z,48.60
2023-04-21T13:05:07.380Z,48.65
2023-04-21T13:07:36.499Z,48.63
2023-04-21T13:10:06.828Z,48.46
2023-04-21T13:12:35.075Z,48.29
2023-04-21T13:15:03.914Z,48.23
2023-04-21T13:17:32.769Z,47.93
2023-04-21T13:20:01.130Z,47.89
2023-04-21T13:22:29.501Z,47.81
2023-04-21T13:24:57.570Z,47.40
2023-04-21T13:27:25.736Z,47.23
2023-04-21T13:29:54.487Z,47.12
2023-04-21T13:32:23.006Z,47.07
2023-04-21T13:34:51.169Z,46.95
2023-04-21T13:37:19.389Z,46.71
2023-04-21T13:39:47.672Z,46.47
2023-04-21T13:42:15.969Z,46.12
2023-04-21T13:44:44.055Z,46.27
2023-04-21T13:47:12.358Z,46.07
2023-04-21T13:49:40.676Z,45.90
2023-04-21T13:52:08.706Z,45.82
2023-04-21T13:54:36.960Z,45.33
2023-04-21T13:57:05.589Z,45.21
2023-04-21T13:59:34.130Z,45.44
2023-04-21T14:02:02.577Z,45.23
2023-04-21T14:04:31.352Z,45.23
2023-04-21T14:06:59.912Z,45.03
2023-04-21T14:09:28.474Z,44.77
2023-04-21T14:11:57.272Z,44.79
2023-04-21T14:14:37.731Z,44.65
2023-04-21T14:17:07.311Z,44.74
2023-04-21T14:19:36.334Z,44.50
2023-04-21T14:22:04.815Z,44.38
2023-04-21T14:24:33.323Z,44.24
2023-04-21T14:27:02.186Z,43.91
2023-04-21T14:29:30.646Z,43.81
2023-04-21T14:31:59.634Z,43.81
2023-04-21T14:34:28.105Z,43.40
2023-04-21T14:36:57.244Z,43.23
2023-04-21T14:39:25.470Z,43.16
2023-04-21T14:41:54.441Z,43.11
2023-04-21T14:44:22.727Z,42.85
2023-04-21T14:47:01.473Z,42.39
2023-04-21T14:49:35.665Z,42.44
2023-04-21T14:52:04.407Z,42.00
2023-04-21T14:54:32.571Z,41.91
2023-04-21T14:57:17.876Z,41.64
2023-04-21T14:59:53.557Z,40.88
2023-04-21T15:02:22.523Z,40.94
2023-04-21T15:04:51.668Z,40.98
2023-04-21T15:07:24.416Z,40.84
2023-04-21T15:09:53.723Z,40.41
2023-04-21T15:12:22.040Z,40.63
2023-04-21T15:14:50.160Z,40.57
2023-04-21T15:17:18.478Z,40.49
2023-04-21T15:19:47.042Z,40.18
2023-04-21T15:22:15.525Z,40.18
2023-04-21T15:24:43.882Z,40.08
2023-04-21T15:27:12.203Z,40.11
2023-04-21T15:29:40.584Z,40.16
2023-04-21T15:32:09.671Z,40.01
2023-04-21T15:34:37.778Z,39.87
2023-04-21T15:37:06.022Z,39.52
2023-04-21T15:39:34.328Z,39.54
2023-04-21T15:42:04.451Z,39.35
2023-04-21T15:44:34.088Z,39.31
2023-04-21T15:47:02.901Z,39.21
2023-04-21T15:49:31.338Z,39.10
2023-04-21T15:51:59.545Z,39.15
2023-04-21T15:54:27.736Z,38.93
2023-04-21T15:56:55.976Z,38.88
2023-04-21T15:59:25.906Z,39.11
2023-04-21T16:01:56.974Z,39.29
2023-04-21T16:04:25.653Z,39.07
2023-04-21T16:06:54.047Z,39.03
2023-04-21T16:09:22.779Z,38.80
2023-04-21T16:11:51.628Z,39.00
2023-04-21T16:14:19.880Z,38.95
2023-04-21T16:16:48.320Z,38.94
2023-04-21T16:19:16.631Z,38.71
2023-04-21T16:21:44.936Z,38.74
2023-04-21T16:24:13.703Z,38.43
2023-04-21T16:26:42.021Z,38.49
2023-04-21T16:29:10.138Z,38.39
2023-04-21T16:31:38.666Z,38.28
2023-04-21T16:34:06.895Z,38.48
2023-04-21T16:36:35.164Z,38.51
2023-04-21T16:39:03.496Z,38.34
2023-04-21T16:41:31.552Z,38.07
2023-04-21T16:43:59.643Z,38.03
2023-04-21T16:46:28.181Z,38.02
2023-04-21T16:48:56.658Z,37.93
2023-04-21T16:51:26.241Z,38.01
2023-04-21T16:53:56.681Z,37.66
2023-04-21T16:56:24.877Z,37.61
2023-04-21T16:58:53.033Z,37.49
2023-04-21T17:01:21.322Z,37.46
2023-04-21T17:03:49.758Z,37.41
2023-04-21T17:06:21.335Z,37.24
2023-04-21T17:08:49.858Z,36.97
2023-04-21T17:11:18.161Z,37.09
2023-04-21T17:13:46.461Z,36.89
2023-04-21T17:16:14.902Z,36.79
2023-04-21T17:18:43.040Z,36.89
2023-04-21T17:21:12.636Z,37.12
2023-04-21T17:23:41.073Z,36.94
2023-04-21T17:26:11.606Z,36.85
2023-04-21T17:28:41.558Z,36.62
2023-04-21T17:31:15.730Z,36.75
2023-04-21T17:33:45.675Z,36.63
2023-04-21T17:36:14.185Z,36.42
2023-04-21T17:38:43.223Z,36.36
2023-04-21T17:41:11.717Z,36.40
2023-04-21T17:43:40.098Z,36.42
2023-04-21T17:46:08.414Z,36.32
2023-04-21T17:48:37.503Z,36.30
2023-04-21T17:51:05.789Z,36.17
2023-04-21T17:53:34.019Z,36.27
2023-04-21T17:56:02.444Z,36.37
2023-04-21T17:58:30.617Z,36.35
2023-04-21T18:00:59.478Z,36.37
2023-04-21T18:03:28.287Z,36.50
2023-04-21T18:05:56.807Z,36.47
2023-04-21T18:08:25.136Z,36.49
2023-04-21T18:10:54.515Z,36.51
2023-04-21T18:13:22.746Z,36.54
2023-04-21T18:15:50.934Z,36.69
2023-04-21T18:18:19.176Z,36.70
2023-04-21T18:20:47.425Z,36.88
2023-04-21T18:23:15.713Z,36.97
2023-04-21T18:25:43.914Z,36.99
2023-04-21T18:28:13.042Z,36.97
2023-04-21T18:30:42.308Z,36.93
2023-04-21T18:33:11.873Z,37.10
2023-04-21T18:35:42.030Z,37.16
2023-04-21T18:38:11.922Z,37.15
2023-04-21T18:40:41.395Z,37.28
2023-04-21T18:43:10.901Z,37.33
2023-04-21T18:45:39.390Z,37.44
2023-04-21T18:48:08.071Z,37.44
2023-04-21T18:50:40.367Z,37.49
2023-04-21T18:53:09.505Z,37.56
2023-04-21T18:55:37.869Z,37.52
2023-04-21T18:58:06.245Z,37.73
2023-04-21T19:00:37.882Z,37.77
2023-04-21T19:03:06.796Z,37.85
2023-04-21T19:05:36.725Z,37.87
2023-04-21T19:08:06.110Z,37.86
2023-04-21T19:10:35.049Z,37.93
2023-04-21T19:13:04.351Z,37.99
2023-04-21T19:15:32.788Z,38.27
2023-04-21T19:18:01.264Z,38.20
2023-04-21T19:20:29.913Z,38.16
2023-04-21T19:22:58.181Z,38.14
2023-04-21T19:25:26.569Z,38.19
2023-04-21T19:27:54.733Z,38.28
2023-04-21T19:30:23.155Z,38.40
2023-04-21T19:32:51.498Z,38.41
2023-04-21T19:35:20.914Z,38.56
2023-04-21T19:37:49.781Z,38.61
2023-04-21T19:40:19.084Z,38.68
2023-04-21T19:42:47.184Z,38.91
2023-04-21T19:45:15.608Z,38.93
2023-04-21T19:47:44.679Z,38.94
2023-04-21T19:50:13.312Z,39.00
2023-04-21T19:52:41.984Z,39.09
2023-04-21T19:55:10.090Z,39.09
2023-04-21T19:57:38.164Z,39.34
2023-04-21T20:00:09.323Z,39.34
2023-04-21T20:02:41.060Z,39.22
2023-04-21T20:05:10.294Z,39.37
2023-04-21T20:07:39.809Z,39.46
2023-04-21T20:10:09.182Z,39.56
2023-04-21T20:12:37.259Z,39.51
2023-04-21T20:15:05.884Z,39.55
2023-04-21T20:17:34.049Z,39.61
2023-04-21T20:20:02.452Z,39.51
2023-04-21T20:22:30.527Z,39.70
2023-04-21T20:24:58.721Z,39.69
2023-04-21T20:27:27.374Z,39.70
2023-04-21T20:29:55.582Z,39.73
2023-04-21T20:32:23.829Z,39.71
2023-04-21T20:34:53.561Z,39.76
2023-04-21T20:37:23.255Z,39.66
2023-04-21T20:39:51.734Z,39.71
2023-04-21T20:42:21.926Z,39.71
2023-04-21T20:44:50.204Z,39.61
2023-04-21T20:47:18.531Z,39.60
2023-04-21T20:49:47.612Z,39.75
2023-04-21T20:52:16.154Z,39.88
2023-04-21T20:54:44.337Z,40.06
2023-04-21T20:57:12.737Z,40.12
2023-04-21T20:59:41.377Z,40.09
2023-04-21T21:02:09.884Z,40.03
2023-04-21T21:04:38.309Z,40.11
2023-04-21T21:07:06.803Z,40.20
2023-04-21T21:09:35.141Z,40.21
2023-04-21T21:12:03.914Z,40.21
2023-04-21T21:14:32.092Z,39.99
2023-04-21T21:17:01.457Z,40.02
2023-04-21T21:19:29.953Z,40.09
2023-04-21T21:21:58.102Z,40.21
2023-04-21T21:24:26.525Z,40.25
2023-04-21T21:26:54.752Z,40.17
2023-04-21T21:29:22.946Z,40.38
2023-04-21T21:31:51.233Z,40.53
2023-04-21T21:34:19.718Z,40.66
2023-04-21T21:36:47.849Z,40.72
2023-04-21T21:39:16.053Z,40.83
2023-04-21T21:41:44.552Z,40.96
2023-04-21T21:44:12.676Z,41.09
2023-04-21T21:46:41.153Z,41.25
2023-04-21T21:49:09.253Z,41.22
2023-04-21T21:51:37.389Z,41.27
2023-04-21T21:54:06.725Z,41.48
2023-04-21T21:56:35.523Z,41.52
2023-04-21T21:59:03.831Z,41.50
2023-04-21T22:01:31.985Z,41.64
2023-04-21T22:04:00.300Z,41.74
2023-04-21T22:06:29.136Z,41.83
2023-04-21T22:08:57.208Z,41.85
2023-04-21T22:11:25.377Z,41.90
2023-04-21T22:13:53.595Z,41.77
2023-04-21T22:16:22.425Z,41.94
2023-04-21T22:18:51.050Z,41.95
2023-04-21T22:21:20.635Z,41.95
2023-04-21T22:23:48.907Z,41.89
2023-04-21T22:26:17.043Z,41.92
2023-04-21T22:28:49.929Z,42.00
2023-04-21T22:31:18.315Z,41.95
2023-04-21T22:33:46.435Z,41.95
2023-04-21T22:36:14.564Z,41.85
2023-04-21T22:38:43.847Z,41.86
2023-04-21T22:41:12.697Z,41.76
2023-04-21T22:43:40.913Z,41.85
2023-04-21T22:46:09.189Z,41.95
2023-04-21T22:48:38.392Z,41.93
2023-04-21T22:51:07.357Z,41.92
2023-04-21T22:53:35.655Z,41.82
2023-04-21T22:56:04.633Z,41.90
2023-04-21T22:58:32.991Z,41.84
2023-04-21T23:01:02.037Z,41.89
2023-04-21T23:03:31.265Z,41.93
2023-04-21T23:05:59.537Z,41.86
2023-04-21T23:08:27.834Z,41.93
2023-04-21T23:10:55.927Z,41.79
2023-04-21T23:13:24.081Z,41.92
2023-04-21T23:15:52.425Z,41.76
2023-04-21T23:18:20.607Z,41.78
2023-04-21T23:20:48.897Z,41.79
2023-04-21T23:23:17.247Z,41.79
2023-04-21T23:25:45.382Z,41.80
2023-04-21T23:28:13.654Z,41.70
2023-04-21T23:30:42.089Z,41.81
2023-04-21T23:33:10.245Z,42.04
2023-04-21T23:35:38.578Z,42.18
2023-04-21T23:38:06.805Z,42.33
2023-04-21T23:40:35.020Z,42.49
2023-04-21T23:43:03.422Z,42.39
2023-04-21T23:45:31.604Z,42.34
2023-04-21T23:47:59.871Z,42.55
2023-04-21T23:50:28.139Z,42.48
2023-04-21T23:52:56.377Z,42.37
2023-04-21T23:55:24.506Z,42.38
2023-04-21T23:57:52.545Z,42.52
